createdAt,value
2023-05-14T00:01:12.424Z,12.66
2023-05-14T00:11:16.196Z,12.48
2023-05-14T00:21:20.588Z,12.31
2023-05-14T00:31:24.228Z,12.14
2023-05-14T00:41:29.194Z,11.96
2023-05-14T00:51:32.252Z,11.79
2023-05-14T01:01:37.462Z,11.63
2023-05-14T01:11:49.142Z,11.48
2023-05-14T01:21:53.989Z,11.33
2023-05-14T01:32:00.971Z,11.19
2023-05-14T01:42:07.260Z,11.06
2023-05-14T01:52:11.258Z,10.94
2023-05-14T02:02:15.784Z,10.83
2023-05-14T02:12:18.844Z,10.73
2023-05-14T02:22:23.346Z,10.65
2023-05-14T02:32:26.350Z,10.73
2023-05-14T02:42:31.066Z,10.95
2023-05-14T02:52:34.926Z,11.22
2023-05-14T03:02:40.384Z,11.54
2023-05-14T03:12:43.695Z,11.79
2023-05-14T03:22:48.445Z,11.93
2023-05-14T03:32:51.668Z,12.00
2023-05-14T03:42:56.402Z,12.11
2023-05-14T03:52:59.341Z,12.27
2023-05-14T04:03:04.028Z,12.47
2023-05-14T04:13:07.611Z,12.73
2023-05-14T04:23:12.647Z,12.87
2023-05-14T04:33:16.073Z,13.06
2023-05-14T04:43:21.057Z,13.31
2023-05-14T04:53:24.731Z,13.43
2023-05-14T05:03:30.231Z,13.68
2023-05-14T05:13:33.260Z,13.84
2023-05-14T05:23:37.796Z,13.89
2023-05-14T05:33:41.073Z,13.94
2023-05-14T05:43:45.735Z,13.97
2023-05-14T05:53:49.357Z,14.03
2023-05-14T06:03:56.798Z,14.14
2023-05-14T06:14:04.441Z,14.20
2023-05-14T06:24:12.735Z,14.33
2023-05-14T06:34:17.068Z,14.47
2023-05-14T06:44:21.505Z,14.56
2023-05-14T06:54:24.418Z,14.67
2023-05-14T07:04:38.534Z,14.83
2023-05-14T07:14:41.678Z,15.03
2023-05-14T07:24:46.668Z,15.17
2023-05-14T07:34:52.218Z,15.26
2023-05-14T07:44:59.649Z,15.31
2023-05-14T07:55:03.695Z,15.35
2023-05-14T08:05:10.327Z,15.37
2023-05-14T08:15:13.450Z,15.42
2023-05-14T08:25:18.088Z,15.48
2023-05-14T08:35:21.286Z,15.54
2023-05-14T08:45:34.194Z,15.59
2023-05-14T08:55:38.457Z,15.64
2023-05-14T09:05:43.116Z,15.68
2023-05-14T09:15:48.810Z,15.69
2023-05-14T09:25:53.543Z,15.73
2023-05-14T09:36:00.019Z,15.77
2023-05-14T09:46:04.690Z,15.80
2023-05-14T09:56:08.375Z,15.87
2023-05-14T10:06:15.393Z,15.92
2023-05-14T10:16:32.387Z,15.96
2023-05-14T10:26:39.643Z,15.97
2023-05-14T10:36:42.824Z,15.97
2023-05-14T10:46:47.472Z,15.95
2023-05-14T10:56:50.455Z,15.93
2023-05-14T11:06:56.995Z,15.92
2023-05-14T11:17:00.909Z,15.88
2023-05-14T11:27:08.643Z,15.89
2023-05-14T11:37:13.208Z,15.91
2023-05-14T11:47:19.317Z,15.88
2023-05-14T11:57:23.545Z,15.86
2023-05-14T12:07:30.771Z,15.84
2023-05-14T12:17:33.743Z,15.82
2023-05-14T12:27:38.944Z,15.79
2023-05-14T12:37:43.974Z,15.78
2023-05-14T12:47:48.660Z,15.77
2023-05-14T12:57:51.681Z,15.74
2023-05-14T13:08:02.452Z,15.73
2023-05-14T13:18:05.858Z,15.70
2023-05-14T13:28:13.563Z,15.69
2023-05-14T13:38:19.520Z,15.69
2023-05-14T13:48:24.782Z,15.68
2023-05-14T13:58:28.357Z,15.69
2023-05-14T14:08:36.257Z,15.69
2023-05-14T14:18:39.352Z,15.65
2023-05-14T14:28:43.910Z,15.56
2023-05-14T14:38:47.021Z,15.46
2023-05-14T14:48:51.945Z,15.38
2023-05-14T14:58:55.710Z,15.33
2023-05-14T15:09:00.278Z,15.27
2023-05-14T15:19:03.297Z,15.23
2023-05-14T15:29:11.679Z,15.18
2023-05-14T15:39:15.875Z,15.14
2023-05-14T15:49:20.986Z,15.10
2023-05-14T15:59:26.655Z,15.05
2023-05-14T16:09:35.006Z,14.99
2023-05-14T16:19:39.486Z,14.98
2023-05-14T16:29:45.458Z,14.96
2023-05-14T16:39:50.027Z,14.94
2023-05-14T16:49:57.824Z,14.91
2023-05-14T17:00:01.586Z,14.87
2023-05-14T17:22:13.262Z,14.80
2023-05-14T17:32:16.800Z,14.73
2023-05-14T17:42:22.192Z,14.65
2023-05-14T17:52:28.056Z,14.56
2023-05-14T18:02:33.300Z,14.48
2023-05-14T18:12:36.322Z,14.37
2023-05-14T18:22:43.359Z,14.26
2023-05-14T18:32:47.982Z,14.11
2023-05-14T18:42:57.259Z,13.97
2023-05-14T18:53:00.230Z,13.82
2023-05-14T19:03:04.785Z,13.67
2023-05-14T19:13:08.137Z,13.50
2023-05-14T19:23:12.526Z,13.35
2023-05-14T19:33:15.450Z,13.19
2023-05-14T19:43:20.253Z,13.03
2023-05-14T19:53:29.757Z,12.88
2023-05-14T20:03:35.116Z,12.72
2023-05-14T20:13:38.457Z,12.56
2023-05-14T20:23:43.505Z,12.41
2023-05-14T20:33:52.301Z,12.26
2023-05-14T20:44:00.607Z,12.11
2023-05-14T20:54:03.712Z,11.95
2023-05-14T21:04:08.181Z,11.81
2023-05-14T21:14:11.408Z,11.67
2023-05-14T21:24:17.061Z,11.53
2023-05-14T21:34:20.083Z,11.39
2023-05-14T21:44:24.537Z,11.24
2023-05-14T21:54:27.537Z,11.09
2023-05-14T22:04:31.954Z,10.93
2023-05-14T22:14:34.937Z,10.77
2023-05-14T22:24:39.285Z,10.61
2023-05-14T22:34:42.087Z,10.44
2023-05-14T22:44:46.419Z,10.28
2023-05-14T22:54:51.787Z,10.11
2023-05-14T23:04:56.197Z,9.95
2023-05-14T23:14:59.520Z,9.79
2023-05-14T23:25:04.083Z,9.63
2023-05-14T23:35:07.646Z,9.48
2023-05-14T23:45:12.937Z,9.32
2023-05-14T23:55:15.975Z,9.18
